IBE781 LIMC-LEMD
Flight info
| Callsign | IBE781 |
|---|---|
| Flight time | N/A |
| Altitude | 39000 |
| Route | NEDED DCT GEKBA DCT VAMTU DCT KOLON DCT GANGU DCT PADKO DCT DIVKO DCT NILDU DCT NENDA N975 ADUXO |
| Aircraft | A346/H-SDE2E3FGHIJ3J4J5M1RWXY/LB1D1 |
Departure
| Time | 2026-05-06 13:41 |
|---|---|
| Airport | Milan Malpensa International Airport (LIMC) |
Arrival
| Time | N/A |
|---|---|
| Airport | Adolfo Suárez Madrid–Barajas Airport (LEMD) |
| Time | Latitude | Longitude | Altitude | Speed | Heading |
|---|---|---|---|---|---|
| 2026-05-06 12:52 | 45.62776 | 8.71704 | 748 ft | 0 kts | 259° |
| 2026-05-06 13:26 | 45.62778 | 8.71718 | 749 ft | 4 kts | 259° |
| 2026-05-06 13:26 | 45.62782 | 8.71748 | 748 ft | 3 kts | 260° |
| 2026-05-06 13:26 | 45.62782 | 8.71776 | 744 ft | 4 kts | 291° |
| 2026-05-06 13:27 | 45.62773 | 8.71793 | 745 ft | 4 kts | 333° |
| 2026-05-06 13:27 | 45.62752 | 8.71802 | 745 ft | 4 kts | 349° |
| 2026-05-06 13:27 | 45.62726 | 8.71809 | 745 ft | 4 kts | 349° |
| 2026-05-06 13:27 | 45.62717 | 8.71811 | 745 ft | 0 kts | 349° |
| 2026-05-06 13:32 | 45.62718 | 8.71811 | 745 ft | 0 kts | 349° |
| 2026-05-06 13:32 | 45.62742 | 8.71805 | 745 ft | 9 kts | 349° |
| 2026-05-06 13:32 | 45.62812 | 8.71785 | 738 ft | 12 kts | 349° |
| 2026-05-06 13:33 | 45.62900 | 8.71761 | 745 ft | 14 kts | 351° |
| 2026-05-06 13:33 | 45.62972 | 8.71835 | 746 ft | 15 kts | 69° |
| 2026-05-06 13:33 | 45.62979 | 8.71901 | 746 ft | 5 kts | 107° |
| 2026-05-06 13:33 | 45.62982 | 8.71945 | 744 ft | 6 kts | 69° |
| 2026-05-06 13:34 | 45.62980 | 8.72015 | 746 ft | 9 kts | 117° |
| 2026-05-06 13:34 | 45.62916 | 8.72066 | 746 ft | 13 kts | 167° |
| 2026-05-06 13:34 | 45.62814 | 8.72096 | 747 ft | 17 kts | 168° |
| 2026-05-06 13:34 | 45.62690 | 8.72132 | 747 ft | 20 kts | 168° |
| 2026-05-06 13:35 | 45.62545 | 8.72173 | 747 ft | 22 kts | 169° |
| 2026-05-06 13:35 | 45.62387 | 8.72215 | 747 ft | 23 kts | 169° |
| 2026-05-06 13:35 | 45.62233 | 8.72256 | 746 ft | 24 kts | 169° |
| 2026-05-06 13:35 | 45.62061 | 8.72302 | 748 ft | 26 kts | 169° |
| 2026-05-06 13:36 | 45.61881 | 8.72354 | 747 ft | 27 kts | 168° |
| 2026-05-06 13:36 | 45.61743 | 8.72392 | 748 ft | 28 kts | 169° |
| 2026-05-06 13:36 | 45.61611 | 8.72428 | 746 ft | 29 kts | 169° |
| 2026-05-06 13:36 | 45.61433 | 8.72476 | 750 ft | 23 kts | 169° |
| 2026-05-06 13:37 | 45.61267 | 8.72521 | 747 ft | 25 kts | 169° |
| 2026-05-06 13:37 | 45.61113 | 8.72567 | 747 ft | 18 kts | 157° |
| 2026-05-06 13:37 | 45.61087 | 8.72733 | 748 ft | 20 kts | 78° |
| 2026-05-06 13:37 | 45.61115 | 8.72944 | 748 ft | 22 kts | 79° |
| 2026-05-06 13:38 | 45.61172 | 8.73085 | 748 ft | 15 kts | 38° |
| 2026-05-06 13:38 | 45.61263 | 8.73177 | 747 ft | 18 kts | 35° |
| 2026-05-06 13:38 | 45.61376 | 8.73269 | 747 ft | 19 kts | 9° |
| 2026-05-06 13:38 | 45.61509 | 8.73240 | 749 ft | 15 kts | 350° |
| 2026-05-06 13:39 | 45.61601 | 8.73255 | 746 ft | 12 kts | 62° |
| 2026-05-06 13:39 | 45.61629 | 8.73385 | 750 ft | 15 kts | 85° |
| 2026-05-06 13:39 | 45.61591 | 8.73529 | 746 ft | 17 kts | 110° |
| 2026-05-06 13:39 | 45.61608 | 8.73701 | 744 ft | 18 kts | 45° |
| 2026-05-06 13:40 | 45.61732 | 8.73708 | 747 ft | 16 kts | 349° |
| 2026-05-06 13:40 | 45.61913 | 8.73660 | 745 ft | 62 kts | 349° |
| 2026-05-06 13:40 | 45.62541 | 8.73480 | 748 ft | 122 kts | 349° |
| 2026-05-06 13:40 | 45.63545 | 8.73202 | 756 ft | 170 kts | 348° |
| 2026-05-06 13:41 | 45.64695 | 8.72883 | 1530 ft | 160 kts | 349° |
| 2026-05-06 13:41 | 45.65774 | 8.72588 | 2163 ft | 161 kts | 355° |
| 2026-05-06 13:41 | 45.66937 | 8.72535 | 2599 ft | 173 kts | 0° |
| 2026-05-06 13:41 | 45.68166 | 8.72507 | 3117 ft | 182 kts | 1° |
| 2026-05-06 13:42 | 45.69429 | 8.72522 | 3548 ft | 196 kts | 1° |
| 2026-05-06 13:42 | 45.70834 | 8.72532 | 3973 ft | 212 kts | 358° |
| 2026-05-06 13:42 | 45.72249 | 8.72009 | 4366 ft | 224 kts | 324° |
| 2026-05-06 13:42 | 45.73219 | 8.70317 | 4706 ft | 232 kts | 285° |
| 2026-05-06 13:43 | 45.73270 | 8.68071 | 5163 ft | 236 kts | 251° |
| 2026-05-06 13:43 | 45.72772 | 8.65906 | 6044 ft | 232 kts | 249° |
| 2026-05-06 13:43 | 45.72298 | 8.63852 | 6844 ft | 232 kts | 250° |
| 2026-05-06 13:43 | 45.71807 | 8.61701 | 7596 ft | 236 kts | 248° |
| 2026-05-06 13:44 | 45.71153 | 8.59557 | 8339 ft | 240 kts | 241° |
| 2026-05-06 13:44 | 45.70302 | 8.57474 | 8900 ft | 254 kts | 237° |
| 2026-05-06 13:44 | 45.69337 | 8.55278 | 9415 ft | 271 kts | 237° |
| 2026-05-06 13:44 | 45.68149 | 8.53103 | 10114 ft | 278 kts | 223° |
| 2026-05-06 13:45 | 45.66570 | 8.51438 | 10753 ft | 291 kts | 208° |
| 2026-05-06 13:45 | 45.62669 | 8.49090 | 11678 ft | 327 kts | 202° |
| 2026-05-06 13:45 | 45.60587 | 8.47904 | 12120 ft | 344 kts | 203° |
| 2026-05-06 13:46 | 45.58358 | 8.46620 | 12767 ft | 354 kts | 203° |
| 2026-05-06 13:46 | 45.56098 | 8.45312 | 13698 ft | 357 kts | 202° |
| 2026-05-06 13:46 | 45.53807 | 8.44115 | 14527 ft | 360 kts | 200° |
| 2026-05-06 13:46 | 45.51452 | 8.42945 | 15349 ft | 364 kts | 200° |
| 2026-05-06 13:47 | 45.49115 | 8.41786 | 16132 ft | 368 kts | 200° |
| 2026-05-06 13:47 | 45.46690 | 8.40584 | 16937 ft | 372 kts | 200° |
| 2026-05-06 13:47 | 45.44290 | 8.39399 | 17731 ft | 376 kts | 200° |
| 2026-05-06 13:47 | 45.41862 | 8.38199 | 18460 ft | 380 kts | 201° |
| 2026-05-06 13:48 | 45.39360 | 8.36963 | 19118 ft | 384 kts | 201° |
| 2026-05-06 13:48 | 45.36819 | 8.35707 | 19703 ft | 390 kts | 201° |
| 2026-05-06 13:48 | 45.34265 | 8.34448 | 20436 ft | 391 kts | 201° |
| 2026-05-06 13:48 | 45.31690 | 8.33179 | 21247 ft | 391 kts | 202° |
| 2026-05-06 13:49 | 45.29131 | 8.31919 | 22050 ft | 392 kts | 202° |
| 2026-05-06 13:49 | 45.26589 | 8.30669 | 22815 ft | 392 kts | 202° |
| 2026-05-06 13:49 | 45.24067 | 8.29432 | 23609 ft | 391 kts | 203° |
| 2026-05-06 13:49 | 45.21539 | 8.28185 | 24269 ft | 391 kts | 203° |
| 2026-05-06 13:50 | 45.18988 | 8.26927 | 24850 ft | 394 kts | 202° |
| 2026-05-06 13:50 | 45.16444 | 8.25676 | 25412 ft | 396 kts | 202° |
| 2026-05-06 13:50 | 45.13866 | 8.24473 | 25967 ft | 399 kts | 200° |
| 2026-05-06 13:50 | 45.11197 | 8.23424 | 26428 ft | 405 kts | 198° |
| 2026-05-06 13:51 | 45.08480 | 8.22557 | 26825 ft | 412 kts | 195° |
| 2026-05-06 13:51 | 45.05762 | 8.21887 | 27280 ft | 416 kts | 193° |
| 2026-05-06 13:51 | 45.02937 | 8.21287 | 27858 ft | 417 kts | 193° |
| 2026-05-06 13:51 | 45.00110 | 8.20669 | 28497 ft | 416 kts | 193° |
| 2026-05-06 13:52 | 44.97334 | 8.20063 | 29321 ft | 412 kts | 193° |
| 2026-05-06 13:52 | 44.94551 | 8.19461 | 30128 ft | 408 kts | 193° |
| 2026-05-06 13:52 | 44.91810 | 8.18869 | 30788 ft | 405 kts | 193° |
| 2026-05-06 13:52 | 44.89065 | 8.18277 | 31376 ft | 404 kts | 193° |
| 2026-05-06 13:53 | 44.86336 | 8.17690 | 31980 ft | 402 kts | 193° |
| 2026-05-06 13:53 | 44.83629 | 8.17109 | 32596 ft | 401 kts | 193° |
| 2026-05-06 13:53 | 44.80955 | 8.16535 | 33175 ft | 399 kts | 193° |
| 2026-05-06 13:53 | 44.78256 | 8.15930 | 33749 ft | 396 kts | 195° |
| 2026-05-06 13:54 | 44.75588 | 8.15147 | 34231 ft | 393 kts | 198° |
| 2026-05-06 13:54 | 44.72971 | 8.14175 | 34627 ft | 393 kts | 200° |
| 2026-05-06 13:54 | 44.70370 | 8.12997 | 34930 ft | 394 kts | 203° |
| 2026-05-06 13:54 | 44.67800 | 8.11618 | 35252 ft | 395 kts | 205° |
| 2026-05-06 13:55 | 44.65293 | 8.10051 | 35613 ft | 395 kts | 208° |
| 2026-05-06 13:55 | 44.62869 | 8.08314 | 35943 ft | 396 kts | 211° |
| 2026-05-06 13:55 | 44.60516 | 8.06403 | 36255 ft | 396 kts | 213° |
| 2026-05-06 13:55 | 44.58159 | 8.04384 | 36557 ft | 398 kts | 213° |
| 2026-05-06 13:56 | 44.55808 | 8.02381 | 36848 ft | 400 kts | 213° |
| 2026-05-06 13:56 | 44.53446 | 8.00369 | 37139 ft | 401 kts | 213° |
| 2026-05-06 13:56 | 44.51094 | 7.98364 | 37378 ft | 404 kts | 213° |
| 2026-05-06 13:56 | 44.48701 | 7.96322 | 37615 ft | 406 kts | 213° |
| 2026-05-06 13:57 | 44.46294 | 7.94266 | 37754 ft | 410 kts | 213° |
| 2026-05-06 13:57 | 44.43889 | 7.92215 | 37901 ft | 414 kts | 213° |
| 2026-05-06 13:57 | 44.41470 | 7.90155 | 38111 ft | 415 kts | 213° |
| 2026-05-06 13:57 | 44.39031 | 7.88080 | 38381 ft | 417 kts | 213° |
| 2026-05-06 13:58 | 44.36592 | 7.86007 | 38554 ft | 418 kts | 213° |
| 2026-05-06 13:58 | 44.34132 | 7.83917 | 38693 ft | 420 kts | 213° |
| 2026-05-06 13:58 | 44.31683 | 7.81839 | 38799 ft | 423 kts | 213° |
| 2026-05-06 13:58 | 44.29240 | 7.79649 | 38799 ft | 423 kts | 216° |
| 2026-05-06 13:59 | 44.24569 | 7.74781 | 38815 ft | 423 kts | 220° |
| 2026-05-06 13:59 | 44.20219 | 7.69485 | 38810 ft | 423 kts | 222° |
| 2026-05-06 14:00 | 44.15880 | 7.64070 | 38808 ft | 423 kts | 224° |
| 2026-05-06 14:00 | 44.11889 | 7.58245 | 38857 ft | 422 kts | 229° |
| 2026-05-06 14:01 | 44.08042 | 7.52088 | 38835 ft | 426 kts | 229° |
| 2026-05-06 14:01 | 44.04123 | 7.45841 | 38848 ft | 426 kts | 229° |
| 2026-05-06 14:02 | 44.00252 | 7.39674 | 38845 ft | 426 kts | 229° |
| 2026-05-06 14:02 | 43.96448 | 7.33629 | 38858 ft | 425 kts | 229° |
| 2026-05-06 14:03 | 43.92670 | 7.27628 | 38861 ft | 425 kts | 229° |
| 2026-05-06 14:03 | 43.88863 | 7.21592 | 38848 ft | 424 kts | 229° |
| 2026-05-06 14:04 | 43.85063 | 7.15585 | 38851 ft | 425 kts | 229° |
| 2026-05-06 14:04 | 43.81285 | 7.09627 | 38867 ft | 424 kts | 229° |
| 2026-05-06 14:05 | 43.77552 | 7.03658 | 38862 ft | 424 kts | 231° |
| 2026-05-06 14:05 | 43.74127 | 6.97266 | 38857 ft | 423 kts | 236° |
| 2026-05-06 14:06 | 43.71183 | 6.90540 | 38860 ft | 424 kts | 241° |
| 2026-05-06 14:06 | 43.68662 | 6.83341 | 38881 ft | 424 kts | 246° |
| 2026-05-06 14:07 | 43.66478 | 6.75981 | 38855 ft | 424 kts | 246° |
| 2026-05-06 14:07 | 43.64305 | 6.68641 | 38864 ft | 424 kts | 246° |
| 2026-05-06 14:08 | 43.62101 | 6.61210 | 38871 ft | 423 kts | 246° |
| 2026-05-06 14:08 | 43.59889 | 6.53768 | 38873 ft | 423 kts | 246° |
| 2026-05-06 14:09 | 43.57704 | 6.46434 | 38906 ft | 423 kts | 246° |
| 2026-05-06 14:09 | 43.55526 | 6.39149 | 38897 ft | 425 kts | 246° |
| 2026-05-06 14:10 | 43.53348 | 6.31880 | 38893 ft | 425 kts | 246° |
| 2026-05-06 14:10 | 43.51110 | 6.24429 | 38891 ft | 425 kts | 246° |
| 2026-05-06 14:11 | 43.48894 | 6.17077 | 38896 ft | 425 kts | 246° |
| 2026-05-06 14:11 | 43.46656 | 6.09675 | 38871 ft | 425 kts | 246° |
| 2026-05-06 14:12 | 43.44443 | 6.02388 | 38901 ft | 425 kts | 246° |
| 2026-05-06 14:12 | 43.42577 | 5.96258 | 38902 ft | 425 kts | 246° |
| 2026-05-06 14:13 | 43.40364 | 5.89002 | 38908 ft | 425 kts | 246° |
| 2026-05-06 14:13 | 43.38140 | 5.81737 | 38907 ft | 425 kts | 246° |
| 2026-05-06 14:14 | 43.35907 | 5.74459 | 38930 ft | 425 kts | 246° |
| 2026-05-06 14:14 | 43.33690 | 5.67252 | 38933 ft | 426 kts | 246° |
| 2026-05-06 14:15 | 43.31443 | 5.59971 | 38933 ft | 426 kts | 246° |
| 2026-05-06 14:15 | 43.30707 | 5.57590 | 38938 ft | 426 kts | 246° |
| 2026-05-06 14:16 | 43.29164 | 5.52605 | 38927 ft | 426 kts | 246° |
| 2026-05-06 14:16 | 43.26523 | 5.44089 | 38932 ft | 424 kts | 246° |
| 2026-05-06 14:17 | 43.24302 | 5.36957 | 38935 ft | 425 kts | 246° |
| 2026-05-06 14:17 | 43.22033 | 5.29692 | 38949 ft | 425 kts | 246° |
| 2026-05-06 14:18 | 43.20150 | 5.23676 | 38947 ft | 425 kts | 246° |
| 2026-05-06 14:18 | 43.17477 | 5.15159 | 38943 ft | 425 kts | 246° |
| 2026-05-06 14:19 | 43.15172 | 5.07835 | 38941 ft | 425 kts | 245° |
| 2026-05-06 14:19 | 43.12863 | 5.00518 | 38944 ft | 425 kts | 245° |
| 2026-05-06 14:20 | 43.10959 | 4.94508 | 38944 ft | 425 kts | 246° |
| 2026-05-06 14:20 | 43.08660 | 4.87584 | 38939 ft | 425 kts | 242° |
| 2026-05-06 14:21 | 43.05812 | 4.80952 | 38945 ft | 425 kts | 236° |
| 2026-05-06 14:21 | 43.02348 | 4.74693 | 38945 ft | 425 kts | 230° |
| 2026-05-06 14:22 | 42.98274 | 4.68919 | 38951 ft | 427 kts | 224° |
| 2026-05-06 14:22 | 42.93972 | 4.63694 | 38950 ft | 427 kts | 223° |
| 2026-05-06 14:23 | 42.89621 | 4.58435 | 38946 ft | 427 kts | 223° |
| 2026-05-06 14:23 | 42.85237 | 4.53147 | 38955 ft | 429 kts | 223° |
| 2026-05-06 14:24 | 42.80780 | 4.47789 | 38949 ft | 429 kts | 223° |
| 2026-05-06 14:24 | 42.76332 | 4.42457 | 38957 ft | 429 kts | 223° |
| 2026-05-06 14:25 | 42.71891 | 4.37142 | 38953 ft | 429 kts | 223° |
| 2026-05-06 14:25 | 42.67489 | 4.31885 | 38955 ft | 429 kts | 223° |
| 2026-05-06 14:26 | 42.63094 | 4.26645 | 38957 ft | 429 kts | 223° |
| 2026-05-06 14:26 | 42.58676 | 4.21390 | 38963 ft | 429 kts | 223° |
| 2026-05-06 14:27 | 42.54275 | 4.16162 | 38970 ft | 432 kts | 223° |
| 2026-05-06 14:27 | 42.49838 | 4.10906 | 38960 ft | 430 kts | 223° |
| 2026-05-06 14:28 | 42.45388 | 4.05642 | 38960 ft | 429 kts | 223° |
| 2026-05-06 14:28 | 42.40910 | 4.00354 | 38962 ft | 429 kts | 223° |
| 2026-05-06 14:29 | 42.36438 | 3.95084 | 38970 ft | 429 kts | 223° |
| 2026-05-06 14:29 | 42.31955 | 3.89815 | 38956 ft | 427 kts | 223° |
| 2026-05-06 14:30 | 42.27728 | 3.84440 | 38963 ft | 424 kts | 227° |
| 2026-05-06 14:30 | 42.23921 | 3.78610 | 38976 ft | 424 kts | 232° |
| 2026-05-06 14:31 | 42.20429 | 3.72217 | 38972 ft | 425 kts | 235° |
| 2026-05-06 14:31 | 42.17039 | 3.65808 | 38969 ft | 425 kts | 235° |
| 2026-05-06 14:32 | 42.13708 | 3.59517 | 38965 ft | 425 kts | 235° |
| 2026-05-06 14:32 | 42.10327 | 3.53140 | 38965 ft | 423 kts | 235° |
| 2026-05-06 14:33 | 42.07006 | 3.46883 | 38964 ft | 423 kts | 235° |
| 2026-05-06 14:33 | 42.03618 | 3.40513 | 38967 ft | 423 kts | 235° |
| 2026-05-06 14:34 | 42.00242 | 3.34181 | 38962 ft | 423 kts | 235° |
| 2026-05-06 14:34 | 41.96817 | 3.27766 | 38965 ft | 423 kts | 234° |
| 2026-05-06 14:35 | 41.93406 | 3.21394 | 38938 ft | 423 kts | 235° |
| 2026-05-06 14:35 | 41.90027 | 3.15095 | 38954 ft | 421 kts | 235° |
| 2026-05-06 14:36 | 41.86637 | 3.08787 | 38958 ft | 421 kts | 234° |
| 2026-05-06 14:36 | 41.83220 | 3.02441 | 38959 ft | 423 kts | 235° |
| 2026-05-06 14:37 | 41.79824 | 2.96149 | 38958 ft | 424 kts | 234° |
| 2026-05-06 14:37 | 41.76439 | 2.89888 | 38939 ft | 424 kts | 234° |
| 2026-05-06 14:38 | 41.73045 | 2.83623 | 38939 ft | 424 kts | 234° |
| 2026-05-06 14:38 | 41.69665 | 2.77401 | 38931 ft | 423 kts | 234° |
| 2026-05-06 14:39 | 41.66211 | 2.71228 | 38938 ft | 424 kts | 233° |
| 2026-05-06 14:39 | 41.62674 | 2.65185 | 38946 ft | 424 kts | 233° |
| 2026-05-06 14:40 | 41.59111 | 2.59096 | 38952 ft | 426 kts | 233° |
| 2026-05-06 14:40 | 41.55535 | 2.52978 | 38956 ft | 426 kts | 233° |
| 2026-05-06 14:41 | 41.52036 | 2.47000 | 38945 ft | 425 kts | 233° |
| 2026-05-06 14:41 | 41.48462 | 2.40901 | 38953 ft | 423 kts | 233° |
| 2026-05-06 14:42 | 41.44879 | 2.34796 | 38956 ft | 423 kts | 233° |
| 2026-05-06 14:42 | 41.41266 | 2.28653 | 38963 ft | 423 kts | 233° |
| 2026-05-06 14:43 | 41.37627 | 2.22484 | 38957 ft | 425 kts | 233° |
| 2026-05-06 14:43 | 41.34316 | 2.16090 | 38953 ft | 425 kts | 240° |
| 2026-05-06 14:44 | 41.31703 | 2.09101 | 38941 ft | 424 kts | 247° |
| 2026-05-06 14:45 | 41.29240 | 1.97844 | 38951 ft | 424 kts | 258° |
| 2026-05-06 14:45 | 41.28328 | 1.90148 | 38961 ft | 425 kts | 259° |
| 2026-05-06 14:46 | 41.27435 | 1.82370 | 38953 ft | 426 kts | 259° |
| 2026-05-06 14:46 | 41.26544 | 1.74637 | 38951 ft | 426 kts | 259° |
| 2026-05-06 14:47 | 41.25651 | 1.66968 | 38947 ft | 426 kts | 259° |
| 2026-05-06 14:47 | 41.24743 | 1.59275 | 38946 ft | 426 kts | 259° |
| 2026-05-06 14:48 | 41.23848 | 1.51742 | 38956 ft | 426 kts | 259° |
| 2026-05-06 14:48 | 41.22934 | 1.44099 | 38946 ft | 427 kts | 259° |
| 2026-05-06 14:49 | 41.22010 | 1.36380 | 38947 ft | 427 kts | 259° |
| 2026-05-06 14:49 | 41.21065 | 1.28537 | 38950 ft | 427 kts | 259° |
| 2026-05-06 14:50 | 41.20123 | 1.20778 | 38956 ft | 427 kts | 259° |
| 2026-05-06 14:50 | 41.19171 | 1.12993 | 38970 ft | 427 kts | 259° |
| 2026-05-06 14:51 | 41.18216 | 1.05233 | 38950 ft | 426 kts | 259° |
| 2026-05-06 14:51 | 41.17256 | 0.97448 | 38943 ft | 427 kts | 259° |
| 2026-05-06 14:52 | 41.16294 | 0.89702 | 38939 ft | 427 kts | 259° |
| 2026-05-06 14:52 | 41.15328 | 0.81958 | 38928 ft | 426 kts | 259° |
| 2026-05-06 14:53 | 41.14359 | 0.74239 | 38942 ft | 427 kts | 259° |
| 2026-05-06 14:53 | 41.13377 | 0.66480 | 38940 ft | 427 kts | 259° |
| 2026-05-06 14:54 | 41.12408 | 0.58824 | 38933 ft | 427 kts | 259° |
| 2026-05-06 14:54 | 41.11424 | 0.51134 | 38943 ft | 427 kts | 259° |
| 2026-05-06 14:55 | 41.10435 | 0.43440 | 38939 ft | 427 kts | 259° |
| 2026-05-06 14:55 | 41.09431 | 0.35695 | 38948 ft | 427 kts | 259° |
| 2026-05-06 14:56 | 41.08431 | 0.28008 | 38945 ft | 427 kts | 259° |
| 2026-05-06 14:56 | 41.07429 | 0.20325 | 38949 ft | 427 kts | 259° |
| 2026-05-06 14:57 | 41.06428 | 0.12704 | 38949 ft | 426 kts | 259° |
| 2026-05-06 14:57 | 41.05428 | 0.05122 | 38953 ft | 426 kts | 259° |
| 2026-05-06 14:58 | 41.04402 | -0.02612 | 38961 ft | 427 kts | 259° |
| 2026-05-06 14:58 | 41.03388 | -0.10221 | 38955 ft | 427 kts | 259° |
| 2026-05-06 14:59 | 41.02350 | -0.17959 | 38953 ft | 427 kts | 259° |
| 2026-05-06 14:59 | 41.01241 | -0.25641 | 38951 ft | 427 kts | 256° |
| 2026-05-06 15:00 | 40.99660 | -0.33075 | 38955 ft | 427 kts | 251° |
| 2026-05-06 15:00 | 40.97685 | -0.40442 | 38956 ft | 427 kts | 250° |
| 2026-05-06 15:01 | 40.95695 | -0.47800 | 38955 ft | 427 kts | 250° |
| 2026-05-06 15:01 | 40.93688 | -0.55187 | 38954 ft | 427 kts | 250° |
| 2026-05-06 15:02 | 40.91699 | -0.62485 | 38959 ft | 427 kts | 250° |
| 2026-05-06 15:02 | 40.89694 | -0.69822 | 38949 ft | 426 kts | 250° |
| 2026-05-06 15:03 | 40.87687 | -0.77130 | 38839 ft | 426 kts | 250° |
| 2026-05-06 15:03 | 40.86684 | -0.80775 | 38531 ft | 425 kts | 250° |
| 2026-05-06 15:03 | 40.85688 | -0.84391 | 38075 ft | 423 kts | 250° |
| 2026-05-06 15:03 | 40.84700 | -0.87974 | 37543 ft | 421 kts | 250° |
| 2026-05-06 15:04 | 40.83748 | -0.91419 | 37031 ft | 419 kts | 250° |
| 2026-05-06 15:04 | 40.82755 | -0.95011 | 36484 ft | 418 kts | 250° |
| 2026-05-06 15:04 | 40.82100 | -0.97376 | 36121 ft | 418 kts | 250° |
| 2026-05-06 15:04 | 40.80763 | -1.02198 | 35334 ft | 418 kts | 250° |
| 2026-05-06 15:05 | 40.79763 | -1.05802 | 34750 ft | 419 kts | 250° |
| 2026-05-06 15:05 | 40.78759 | -1.09414 | 34176 ft | 419 kts | 250° |
| 2026-05-06 15:05 | 40.78092 | -1.11810 | 33727 ft | 419 kts | 250° |
| 2026-05-06 15:05 | 40.77099 | -1.15370 | 33053 ft | 420 kts | 250° |
| 2026-05-06 15:06 | 40.76112 | -1.18902 | 32380 ft | 421 kts | 250° |
| 2026-05-06 15:06 | 40.75115 | -1.22465 | 31714 ft | 421 kts | 250° |
| 2026-05-06 15:06 | 40.74121 | -1.26011 | 31038 ft | 422 kts | 250° |
| 2026-05-06 15:06 | 40.73108 | -1.29624 | 30374 ft | 423 kts | 250° |
| 2026-05-06 15:07 | 40.72127 | -1.33115 | 29687 ft | 424 kts | 250° |
| 2026-05-06 15:07 | 40.71134 | -1.36644 | 28972 ft | 424 kts | 250° |
| 2026-05-06 15:07 | 40.70123 | -1.40233 | 28271 ft | 424 kts | 250° |
| 2026-05-06 15:07 | 40.69113 | -1.43816 | 27562 ft | 424 kts | 250° |
| 2026-05-06 15:08 | 40.68130 | -1.47301 | 27115 ft | 423 kts | 250° |
| 2026-05-06 15:08 | 40.67127 | -1.50848 | 26596 ft | 420 kts | 250° |
| 2026-05-06 15:08 | 40.66138 | -1.54339 | 26125 ft | 416 kts | 250° |
| 2026-05-06 15:08 | 40.65142 | -1.57851 | 25654 ft | 412 kts | 250° |
| 2026-05-06 15:09 | 40.64165 | -1.61296 | 25203 ft | 408 kts | 250° |
| 2026-05-06 15:09 | 40.63181 | -1.64756 | 24756 ft | 404 kts | 250° |
| 2026-05-06 15:09 | 40.62210 | -1.68169 | 24312 ft | 401 kts | 250° |
| 2026-05-06 15:09 | 40.61246 | -1.71550 | 23875 ft | 397 kts | 250° |
| 2026-05-06 15:10 | 40.60315 | -1.74817 | 23435 ft | 394 kts | 250° |
| 2026-05-06 15:10 | 40.59356 | -1.78177 | 22929 ft | 391 kts | 250° |
| 2026-05-06 15:10 | 40.58411 | -1.81480 | 22465 ft | 387 kts | 250° |
| 2026-05-06 15:10 | 40.57483 | -1.84743 | 22023 ft | 383 kts | 251° |
| 2026-05-06 15:11 | 40.56668 | -1.87998 | 21632 ft | 380 kts | 253° |
| 2026-05-06 15:11 | 40.55877 | -1.91349 | 21282 ft | 394 kts | 253° |
| 2026-05-06 15:11 | 40.55086 | -1.94714 | 20928 ft | 401 kts | 253° |
| 2026-05-06 15:11 | 40.54305 | -1.98007 | 20581 ft | 401 kts | 253° |
| 2026-05-06 15:12 | 40.53485 | -2.01446 | 20224 ft | 401 kts | 253° |
| 2026-05-06 15:12 | 40.52661 | -2.04880 | 19868 ft | 400 kts | 253° |
| 2026-05-06 15:12 | 40.51831 | -2.08329 | 19509 ft | 399 kts | 253° |
| 2026-05-06 15:12 | 40.51012 | -2.11723 | 19162 ft | 399 kts | 253° |
| 2026-05-06 15:13 | 40.50184 | -2.15147 | 18811 ft | 398 kts | 253° |
| 2026-05-06 15:13 | 40.49376 | -2.18480 | 18469 ft | 396 kts | 253° |
| 2026-05-06 15:13 | 40.48571 | -2.21799 | 18024 ft | 394 kts | 253° |
| 2026-05-06 15:13 | 40.47775 | -2.25076 | 17535 ft | 391 kts | 253° |
| 2026-05-06 15:14 | 40.46966 | -2.28399 | 17059 ft | 388 kts | 253° |
| 2026-05-06 15:14 | 40.46162 | -2.31698 | 16571 ft | 385 kts | 252° |
| 2026-05-06 15:14 | 40.45366 | -2.34961 | 16083 ft | 382 kts | 252° |
| 2026-05-06 15:14 | 40.44583 | -2.38163 | 15614 ft | 380 kts | 252° |
| 2026-05-06 15:15 | 40.43779 | -2.41446 | 15129 ft | 378 kts | 252° |
| 2026-05-06 15:15 | 40.42981 | -2.44698 | 14586 ft | 378 kts | 252° |
| 2026-05-06 15:15 | 40.42190 | -2.47917 | 14189 ft | 374 kts | 252° |
| 2026-05-06 15:15 | 40.41409 | -2.51094 | 13763 ft | 372 kts | 252° |
| 2026-05-06 15:16 | 40.40624 | -2.54283 | 13260 ft | 372 kts | 252° |
| 2026-05-06 15:16 | 40.39837 | -2.57472 | 12806 ft | 369 kts | 252° |
| 2026-05-06 15:16 | 40.39050 | -2.60658 | 12367 ft | 366 kts | 252° |
| 2026-05-06 15:16 | 40.38267 | -2.63822 | 11938 ft | 363 kts | 252° |
| 2026-05-06 15:17 | 40.37490 | -2.66960 | 11515 ft | 360 kts | 252° |
| 2026-05-06 15:17 | 40.36722 | -2.70061 | 11107 ft | 358 kts | 252° |
| 2026-05-06 15:17 | 40.35949 | -2.73172 | 10766 ft | 352 kts | 252° |
| 2026-05-06 15:17 | 40.35207 | -2.76158 | 10581 ft | 340 kts | 252° |
| 2026-05-06 15:18 | 40.34496 | -2.79017 | 10397 ft | 330 kts | 252° |
| 2026-05-06 15:18 | 40.33800 | -2.81809 | 10208 ft | 320 kts | 252° |
| 2026-05-06 15:18 | 40.33120 | -2.84536 | 10037 ft | 310 kts | 252° |
| 2026-05-06 15:18 | 40.32461 | -2.87173 | 9864 ft | 301 kts | 252° |
| 2026-05-06 15:19 | 40.31817 | -2.89750 | 9671 ft | 292 kts | 252° |
| 2026-05-06 15:19 | 40.31194 | -2.92241 | 9427 ft | 286 kts | 252° |
| 2026-05-06 15:19 | 40.30576 | -2.94707 | 9062 ft | 285 kts | 252° |
| 2026-05-06 15:19 | 40.29960 | -2.97161 | 8691 ft | 283 kts | 252° |
| 2026-05-06 15:20 | 40.29352 | -2.99585 | 8340 ft | 282 kts | 252° |
| 2026-05-06 15:20 | 40.28745 | -3.02001 | 8001 ft | 280 kts | 252° |
| 2026-05-06 15:20 | 40.28141 | -3.04402 | 7660 ft | 279 kts | 252° |
| 2026-05-06 15:20 | 40.27545 | -3.06768 | 7318 ft | 278 kts | 252° |
| 2026-05-06 15:21 | 40.26948 | -3.09136 | 7098 ft | 272 kts | 252° |
| 2026-05-06 15:21 | 40.26364 | -3.11451 | 6897 ft | 266 kts | 252° |
| 2026-05-06 15:21 | 40.25957 | -3.13761 | 6701 ft | 259 kts | 266° |
| 2026-05-06 15:21 | 40.26072 | -3.16058 | 6502 ft | 253 kts | 279° |
| 2026-05-06 15:22 | 40.26372 | -3.18289 | 6299 ft | 247 kts | 281° |
| 2026-05-06 15:22 | 40.26685 | -3.20447 | 6151 ft | 241 kts | 281° |
| 2026-05-06 15:22 | 40.26986 | -3.22572 | 6029 ft | 240 kts | 280° |
| 2026-05-06 15:22 | 40.27277 | -3.24703 | 5943 ft | 240 kts | 280° |
| 2026-05-06 15:23 | 40.27565 | -3.26859 | 5943 ft | 241 kts | 280° |
| 2026-05-06 15:23 | 40.27849 | -3.29004 | 5941 ft | 241 kts | 280° |
| 2026-05-06 15:23 | 40.28131 | -3.31135 | 5934 ft | 237 kts | 282° |
| 2026-05-06 15:23 | 40.28665 | -3.33092 | 5914 ft | 225 kts | 298° |
| 2026-05-06 15:24 | 40.29451 | -3.34824 | 5667 ft | 224 kts | 305° |
| 2026-05-06 15:24 | 40.30443 | -3.36346 | 5402 ft | 219 kts | 315° |
| 2026-05-06 15:24 | 40.31588 | -3.37633 | 5150 ft | 214 kts | 322° |
| 2026-05-06 15:24 | 40.32746 | -3.38775 | 5041 ft | 198 kts | 323° |
| 2026-05-06 15:25 | 40.33777 | -3.39784 | 5006 ft | 174 kts | 323° |
| 2026-05-06 15:25 | 40.34711 | -3.40715 | 4980 ft | 169 kts | 322° |
| 2026-05-06 15:25 | 40.35633 | -3.41648 | 4828 ft | 168 kts | 322° |
| 2026-05-06 15:25 | 40.36533 | -3.42566 | 4607 ft | 167 kts | 322° |
| 2026-05-06 15:26 | 40.37444 | -3.43498 | 4374 ft | 167 kts | 322° |
| 2026-05-06 15:26 | 40.38365 | -3.44440 | 4153 ft | 167 kts | 321° |
| 2026-05-06 15:26 | 40.39260 | -3.45356 | 3932 ft | 167 kts | 321° |
| 2026-05-06 15:26 | 40.40168 | -3.46285 | 3716 ft | 166 kts | 322° |
| 2026-05-06 15:27 | 40.41063 | -3.47199 | 3505 ft | 166 kts | 321° |
| 2026-05-06 15:27 | 40.41965 | -3.48120 | 3294 ft | 166 kts | 321° |
| 2026-05-06 15:27 | 40.42851 | -3.49026 | 3048 ft | 165 kts | 322° |
| 2026-05-06 15:27 | 40.43740 | -3.49933 | 2831 ft | 164 kts | 323° |
| 2026-05-06 15:28 | 40.44327 | -3.50529 | 2699 ft | 164 kts | 322° |
| 2026-05-06 15:28 | 40.45172 | -3.51381 | 2494 ft | 163 kts | 322° |
| 2026-05-06 15:29 | 40.45699 | -3.51910 | 2347 ft | 163 kts | 322° |